Time;durP1;ratioP1;P1;durP2;ratioP2;P2;SDS_P1;SDS_P2;PMS_P1;PMS_P2;Temp;Humidity;BMP_temperature;BMP_pressure;BME280_temperature;BME280_humidity;BME280_pressure;Samples;Min_cycle;Max_cycle;Signal;HPM_P1;HPM_P2
2021/12/15 11:17:05;;;;;;;0.30;0.30;;;;;;;;;;4862813;29;20057;-84
2021/12/15 11:19:39;;;;;;;0.30;0.30;;;;;;;;;;4862967;29;20052;-83
2021/12/15 11:22:23;;;;;;;0.20;0.20;;;;;;;;;;4866801;29;20556;-84
2021/12/15 11:24:49;;;;;;;0.30;0.30;;;;;;;;;;4863807;29;20112;-83
2021/12/15 11:27:20;;;;;;;0.30;0.30;;;;;;;;;;4873236;29;20057;-83
2021/12/15 11:29:46;;;;;;;0.30;0.30;;;;;;;;;;4872606;29;20045;-83
2021/12/15 11:32:31;;;;;;;0.30;0.30;;;;;;;;;;4870362;29;20056;-83
2021/12/15 11:35:06;;;;;;;0.30;0.30;;;;;;;;;;4870381;29;20041;-83
2021/12/15 11:37:48;;;;;;;0.30;0.30;;;;;;;;;;4869803;29;20319;-83
2021/12/15 11:40:14;;;;;;;0.30;0.30;;;;;;;;;;4855730;29;20126;-84
2021/12/15 11:42:41;;;;;;;0.30;0.30;;;;;;;;;;4870916;29;20063;-83
2021/12/15 11:45:08;;;;;;;0.30;0.30;;;;;;;;;;4871042;29;20068;-84
2021/12/15 11:47:36;;;;;;;0.30;0.30;;;;;;;;;;4869166;29;20037;-83
2021/12/15 11:50:19;;;;;;;0.25;0.25;;;;;;;;;;4866602;29;20231;-84
2021/12/15 11:52:48;;;;;;;0.30;0.30;;;;;;;;;;4853864;29;20244;-83
2021/12/15 11:55:24;;;;;;;0.20;0.20;;;;;;;;;;4868587;29;20041;-84
2021/12/15 11:57:50;;;;;;;0.25;0.25;;;;;;;;;;4856801;29;20089;-83
2021/12/15 12:00:18;;;;;;;0.30;0.30;;;;;;;;;;4857342;29;20034;-84
2021/12/15 12:02:54;;;;;;;0.30;0.30;;;;;;;;;;4860998;29;20029;-84
2021/12/15 12:05:20;;;;;;;0.30;0.30;;;;;;;;;;4862231;29;20036;-84
2021/12/15 12:07:47;;;;;;;0.30;0.30;;;;;;;;;;4862276;29;20037;-84
2021/12/15 12:10:16;;;;;;;0.30;0.30;;;;;;;;;;4856058;29;20037;-84
2021/12/15 12:12:51;;;;;;;0.30;0.30;;;;;;;;;;4855623;29;20033;-83
2021/12/15 12:15:19;;;;;;;0.30;0.30;;;;;;;;;;4852029;29;20037;-84
2021/12/15 12:17:46;;;;;;;0.30;0.30;;;;;;;;;;4855700;29;20129;-83
2021/12/15 12:20:14;;;;;;;0.30;0.30;;;;;;;;;;4854281;29;20033;-84
2021/12/15 12:22:43;;;;;;;0.30;0.30;;;;;;;;;;4859347;29;20044;-84
2021/12/15 12:25:13;;;;;;;0.30;0.30;;;;;;;;;;4856938;29;20024;-84
2021/12/15 12:27:39;;;;;;;0.30;0.30;;;;;;;;;;4856364;29;20088;-84
2021/12/15 12:30:09;;;;;;;0.30;0.30;;;;;;;;;;4854671;29;20086;-84
2021/12/15 12:32:36;;;;;;;0.30;0.30;;;;;;;;;;4866670;29;20478;-84
2021/12/15 12:35:03;;;;;;;;;;;;;;;;;;4869698;29;20052;-84
2021/12/15 12:37:29;;;;;;;;;;;;;;;;;;4870743;29;19923;-84
2021/12/15 12:39:58;;;;;;;0.30;0.30;;;;;;;;;;4869310;29;19916;-84
2021/12/15 12:42:33;;;;;;;0.30;0.30;;;;;;;;;;4871158;29;20033;-84
2021/12/15 12:45:18;;;;;;;0.30;0.30;;;;;;;;;;4870193;29;20781;-84
2021/12/15 12:48:03;;;;;;;0.30;0.30;;;;;;;;;;4870567;29;20041;-84
2021/12/15 13:01:08;;;;;;;0.22;0.22;;;;;;;;;;4868663;29;20809;-84
2021/12/15 13:03:47;;;;;;;0.30;0.30;;;;;;;;;;4853330;29;20394;-84
2021/12/15 13:06:15;;;;;;;0.30;0.30;;;;;;;;;;4871384;29;20113;-84
2021/12/15 13:08:41;;;;;;;0.30;0.30;;;;;;;;;;4868059;29;20049;-85
2021/12/15 13:11:16;;;;;;;0.30;0.30;;;;;;;;;;4868573;29;20074;-83
2021/12/15 13:14:02;;;;;;;0.20;0.20;;;;;;;;;;4868325;29;20049;-84
2021/12/15 13:16:30;;;;;;;0.30;0.30;;;;;;;;;;4868037;29;20488;-84
2021/12/15 13:18:58;;;;;;;0.30;0.30;;;;;;;;;;4868371;29;20057;-84
2021/12/15 13:21:41;;;;;;;0.30;0.30;;;;;;;;;;4870573;29;20029;-84
2021/12/15 13:28:39;;;;;;;0.30;0.30;;;;;;;;;;4870409;29;20044;-85
2021/12/15 13:30:01;;;;;;;0.30;0.30;;;;;;;;;;4869492;29;20101;-84
2021/12/15 13:32:30;;;;;;;0.30;0.30;;;;;;;;;;4869824;29;20029;-84
2021/12/15 13:34:56;;;;;;;0.30;0.30;;;;;;;;;;4868214;29;20064;-84
2021/12/15 13:37:41;;;;;;;0.20;0.20;;;;;;;;;;4867964;29;20158;-84
2021/12/15 13:40:10;;;;;;;0.30;0.30;;;;;;;;;;4868201;29;20304;-84
2021/12/15 13:42:40;;;;;;;0.30;0.30;;;;;;;;;;4869757;29;20032;-85
2021/12/15 13:45:24;;;;;;;0.30;0.30;;;;;;;;;;4870362;29;20514;-84
2021/12/15 13:47:50;;;;;;;0.20;0.20;;;;;;;;;;4870079;29;20041;-85
2021/12/15 13:50:18;;;;;;;0.20;0.20;;;;;;;;;;4868061;29;20041;-85
2021/12/15 13:52:46;;;;;;;0.20;0.20;;;;;;;;;;4868193;29;20029;-84
2021/12/15 13:55:15;;;;;;;0.30;0.30;;;;;;;;;;4869361;29;20096;-85
2021/12/15 13:57:47;;;;;;;0.30;0.30;;;;;;;;;;4868781;29;20057;-84
2021/12/15 14:00:20;;;;;;;0.20;0.20;;;;;;;;;;4871352;29;20074;-84
2021/12/15 14:03:05;;;;;;;0.22;0.22;;;;;;;;;;4871872;29;20088;-85
2021/12/15 14:05:33;;;;;;;0.30;0.30;;;;;;;;;;4871465;29;20068;-85
2021/12/15 14:08:04;;;;;;;0.20;0.20;;;;;;;;;;4863607;29;20029;-85
2021/12/15 14:10:30;;;;;;;0.30;0.30;;;;;;;;;;4862000;29;20037;-84
2021/12/15 14:12:57;;;;;;;0.20;0.20;;;;;;;;;;4871793;29;20607;-85
2021/12/15 14:15:41;;;;;;;0.20;0.20;;;;;;;;;;4868368;29;20034;-85
2021/12/15 14:18:18;;;;;;;0.30;0.30;;;;;;;;;;4873791;29;20068;-84
2021/12/15 14:20:44;;;;;;;0.30;0.30;;;;;;;;;;4872830;29;20060;-84
2021/12/15 14:23:15;;;;;;;0.20;0.20;;;;;;;;;;4871189;29;20469;-85
2021/12/15 14:25:43;;;;;;;0.20;0.20;;;;;;;;;;4868692;29;20310;-85
2021/12/15 14:28:29;;;;;;;0.20;0.20;;;;;;;;;;4860995;29;20033;-84
2021/12/15 14:30:59;;;;;;;0.30;0.30;;;;;;;;;;4839280;29;20526;-84
2021/12/15 14:33:27;;;;;;;0.20;0.20;;;;;;;;;;4856342;29;20097;-84
2021/12/15 14:35:56;;;;;;;0.30;0.30;;;;;;;;;;4856245;29;20034;-84
2021/12/15 14:38:38;;;;;;;0.30;0.30;;;;;;;;;;4859189;29;20104;-84
2021/12/15 14:41:05;;;;;;;0.30;0.30;;;;;;;;;;4858096;29;20037;-84
2021/12/15 14:43:31;;;;;;;;;;;;;;;;;;4857167;29;20679;-84
2021/12/15 14:45:57;;;;;;;0.20;0.20;;;;;;;;;;4856681;29;19915;-84
2021/12/15 14:48:23;;;;;;;0.20;0.20;;;;;;;;;;4856561;29;20074;-84
2021/12/15 14:50:49;;;;;;;83.13;75.20;;;;;;;;;;4864222;29;20076;-84
2021/12/15 14:53:15;;;;;;;219.43;204.50;;;;;;;;;;4860379;29;20297;-84
2021/12/15 14:55:41;;;;;;;14.10;13.40;;;;;;;;;;4857683;29;20089;-84
2021/12/15 14:58:08;;;;;;;506.42;256.13;;;;;;;;;;4855587;29;20036;-84
2021/12/15 15:00:37;;;;;;;397.60;138.05;;;;;;;;;;4854997;29;20378;-84
2021/12/15 15:03:05;;;;;;;0.10;0.10;;;;;;;;;;4858514;29;20030;-84
2021/12/15 15:05:34;;;;;;;45.83;43.47;;;;;;;;;;4859362;29;20037;-84
2021/12/15 15:08:05;;;;;;;0.10;0.10;;;;;;;;;;4859040;29;20128;-84
2021/12/15 15:10:34;;;;;;;104.00;95.32;;;;;;;;;;4859110;29;20125;-84
2021/12/15 15:13:01;;;;;;;0.10;0.10;;;;;;;;;;4858702;29;20504;-84
2021/12/15 15:15:37;;;;;;;0.10;0.10;;;;;;;;;;4858527;29;20046;-84
2021/12/15 15:18:29;;;;;;;0.10;0.10;;;;;;;;;;4857245;29;20045;-84
2021/12/15 15:20:57;;;;;;;0.10;0.10;;;;;;;;;;4859308;29;20034;-84
2021/12/15 15:23:25;;;;;;;0.10;0.10;;;;;;;;;;4857976;29;20041;-83
2021/12/15 15:25:54;;;;;;;0.10;0.10;;;;;;;;;;4859621;29;20517;-83
2021/12/15 15:28:22;;;;;;;0.20;0.20;;;;;;;;;;4861566;29;20086;-83
2021/12/15 15:30:50;;;;;;;0.20;0.20;;;;;;;;;;4855857;29;20791;-84
2021/12/15 15:33:18;;;;;;;0.20;0.20;;;;;;;;;;4854926;29;20026;-84
2021/12/15 15:35:52;;;;;;;0.20;0.20;;;;;;;;;;4859609;29;20269;-84
2021/12/15 15:38:19;;;;;;;0.20;0.20;;;;;;;;;;4859383;29;20052;-84
2021/12/15 15:40:47;;;;;;;0.20;0.20;;;;;;;;;;4856019;29;20055;-84
2021/12/15 15:43:15;;;;;;;0.20;0.20;;;;;;;;;;4856141;29;20537;-84
2021/12/15 15:45:41;;;;;;;0.20;0.20;;;;;;;;;;4857576;29;20045;-83
2021/12/15 15:48:09;;;;;;;0.10;0.10;;;;;;;;;;4859293;29;20041;-83
2021/12/15 15:50:38;;;;;;;0.10;0.10;;;;;;;;;;4856383;29;20041;-83
2021/12/15 15:53:05;;;;;;;0.20;0.20;;;;;;;;;;4855965;29;20041;-82
2021/12/15 15:55:32;;;;;;;0.20;0.20;;;;;;;;;;4859746;29;20136;-82
2021/12/15 15:58:06;;;;;;;0.20;0.20;;;;;;;;;;4869006;29;20501;-82
2021/12/15 16:00:33;;;;;;;0.20;0.20;;;;;;;;;;4871298;29;20039;-82
2021/12/15 16:02:59;;;;;;;0.10;0.10;;;;;;;;;;4858645;29;20070;-83
2021/12/15 16:05:26;;;;;;;0.20;0.20;;;;;;;;;;4866728;29;20116;-82
2021/12/15 16:07:52;;;;;;;;;;;;;;;;;;4869422;29;20032;-82
2021/12/15 16:10:20;;;;;;;0.10;0.10;;;;;;;;;;4854930;29;20749;-82
2021/12/15 16:12:47;;;;;;;0.20;0.20;;;;;;;;;;4869670;29;20111;-80
2021/12/15 16:15:13;;;;;;;;;;;;;;;;;;4871309;29;20044;-82
2021/12/15 16:17:54;;;;;;;0.35;0.35;;;;;;;;;;4869081;29;19955;-82
2021/12/15 16:20:23;;;;;;;0.20;0.20;;;;;;;;;;4869057;29;20109;-82
2021/12/15 16:22:51;;;;;;;0.20;0.20;;;;;;;;;;4868989;29;20029;-81
2021/12/15 16:25:25;;;;;;;0.20;0.20;;;;;;;;;;4869115;29;20128;-81
2021/12/15 16:28:10;;;;;;;0.20;0.20;;;;;;;;;;4855100;29;20132;-82
2021/12/15 16:30:41;;;;;;;0.20;0.20;;;;;;;;;;4856873;29;20133;-81
2021/12/15 16:33:10;;;;;;;0.20;0.20;;;;;;;;;;4855203;29;20030;-81
2021/12/15 16:35:38;;;;;;;0.20;0.20;;;;;;;;;;4856255;29;20033;-82
2021/12/15 16:38:24;;;;;;;0.32;0.32;;;;;;;;;;4855919;29;20031;-82
2021/12/15 16:40:52;;;;;;;0.20;0.20;;;;;;;;;;4861518;29;20033;-81
2021/12/15 16:43:18;;;;;;;0.20;0.20;;;;;;;;;;4868651;29;20037;-81
2021/12/15 16:45:45;;;;;;;0.20;0.20;;;;;;;;;;4852997;29;20493;-82
2021/12/15 16:48:22;;;;;;;0.20;0.20;;;;;;;;;;4871474;29;20025;-82
2021/12/15 16:50:52;;;;;;;0.20;0.20;;;;;;;;;;4869103;29;20044;-81
2021/12/15 16:53:20;;;;;;;0.50;0.50;;;;;;;;;;4868603;29;20580;-82
2021/12/15 16:55:46;;;;;;;0.20;0.20;;;;;;;;;;4868652;29;20088;-82
2021/12/15 16:58:12;;;;;;;0.20;0.20;;;;;;;;;;4868628;29;20044;-82
2021/12/15 17:00:39;;;;;;;0.20;0.20;;;;;;;;;;4869508;29;20088;-81
2021/12/15 17:03:06;;;;;;;0.20;0.20;;;;;;;;;;4870453;29;20037;-82
2021/12/15 17:05:32;;;;;;;0.20;0.20;;;;;;;;;;4868724;29;20040;-82
2021/12/15 17:08:00;;;;;;;0.20;0.20;;;;;;;;;;4868369;29;20048;-81
2021/12/15 17:10:39;;;;;;;0.20;0.20;;;;;;;;;;4868204;29;20061;-81
2021/12/15 17:13:12;;;;;;;0.20;0.20;;;;;;;;;;4868525;29;20076;-80
2021/12/15 17:15:52;;;;;;;0.20;0.20;;;;;;;;;;4870205;29;20021;-80
2021/12/15 17:18:28;;;;;;;0.20;0.20;;;;;;;;;;4867846;29;20125;-81
2021/12/15 17:21:02;;;;;;;0.20;0.20;;;;;;;;;;4870855;29;20057;-83
2021/12/15 17:23:34;;;;;;;0.20;0.20;;;;;;;;;;4868371;29;20071;-83
2021/12/15 17:26:05;;;;;;;0.20;0.20;;;;;;;;;;4868292;29;20523;-83
2021/12/15 17:28:35;;;;;;;0.20;0.20;;;;;;;;;;4868020;29;20053;-83
2021/12/15 17:31:01;;;;;;;0.20;0.20;;;;;;;;;;4846844;29;20077;-83
2021/12/15 17:33:26;;;;;;;0.20;0.20;;;;;;;;;;4870184;29;20052;-82
2021/12/15 17:35:53;;;;;;;0.30;0.30;;;;;;;;;;4871929;29;20424;-83
2021/12/15 17:38:21;;;;;;;0.20;0.20;;;;;;;;;;4871959;29;20032;-83
2021/12/15 17:40:48;;;;;;;0.20;0.20;;;;;;;;;;4871717;29;20025;-83
2021/12/15 17:43:26;;;;;;;0.20;0.20;;;;;;;;;;4871661;29;20444;-82
2021/12/15 17:45:53;;;;;;;0.20;0.20;;;;;;;;;;4857446;29;20036;-82
2021/12/15 17:48:24;;;;;;;0.20;0.20;;;;;;;;;;4874739;29;20036;-83
2021/12/15 17:50:50;;;;;;;0.20;0.20;;;;;;;;;;4873463;29;20516;-82
2021/12/15 17:53:16;;;;;;;0.20;0.20;;;;;;;;;;4857051;29;20029;-82
2021/12/15 17:55:52;;;;;;;0.20;0.20;;;;;;;;;;4871452;29;20033;-77
2021/12/15 17:58:20;;;;;;;0.10;0.10;;;;;;;;;;4846217;29;20045;-77
2021/12/15 18:00:46;;;;;;;0.10;0.10;;;;;;;;;;4871642;29;20044;-78
2021/12/15 18:03:14;;;;;;;1.45;0.63;;;;;;;;;;4860434;29;20033;-78
2021/12/15 18:05:41;;;;;;;0.20;0.20;;;;;;;;;;4866416;29;20037;-77
2021/12/15 18:08:07;;;;;;;0.20;0.20;;;;;;;;;;4859046;29;20100;-78
2021/12/15 18:10:40;;;;;;;0.20;0.20;;;;;;;;;;4858563;29;20033;-78
2021/12/15 18:13:09;;;;;;;0.10;0.10;;;;;;;;;;4871116;29;20034;-78
2021/12/15 18:15:36;;;;;;;0.10;0.10;;;;;;;;;;4865274;29;20660;-78
2021/12/15 18:18:02;;;;;;;0.10;0.10;;;;;;;;;;4868611;29;20077;-77
2021/12/15 18:20:28;;;;;;;0.10;0.10;;;;;;;;;;4871361;29;20057;-77
2021/12/15 18:22:54;;;;;;;0.20;0.20;;;;;;;;;;4864177;29;20025;-78
2021/12/15 18:25:22;;;;;;;0.10;0.10;;;;;;;;;;4858087;29;20036;-77
2021/12/15 18:27:49;;;;;;;0.20;0.20;;;;;;;;;;4855924;29;20102;-77
2021/12/15 18:30:16;;;;;;;0.32;0.32;;;;;;;;;;4857149;29;22122;-83
2021/12/15 18:32:44;;;;;;;;;;;;;;;;;;4863602;29;20026;-83
2021/12/15 18:35:11;;;;;;;0.20;0.20;;;;;;;;;;4863808;29;19916;-83
2021/12/15 18:37:37;;;;;;;0.13;0.13;;;;;;;;;;4863903;29;20041;-83
2021/12/15 18:40:06;;;;;;;0.27;0.27;;;;;;;;;;4868765;29;20036;-84
2021/12/15 18:42:32;;;;;;;0.10;0.10;;;;;;;;;;4872935;29;20173;-85
2021/12/15 18:44:59;;;;;;;0.10;0.10;;;;;;;;;;4871476;29;20507;-83
2021/12/15 18:47:26;;;;;;;;;;;;;;;;;;4871209;29;20033;-78
2021/12/15 18:49:56;;;;;;;0.20;0.20;;;;;;;;;;4871740;29;19930;-78
2021/12/15 18:52:23;;;;;;;0.20;0.20;;;;;;;;;;4871955;29;20033;-78
2021/12/15 18:54:49;;;;;;;0.20;0.20;;;;;;;;;;4868221;29;20037;-78
2021/12/15 18:57:16;;;;;;;0.50;0.50;;;;;;;;;;4865520;29;20121;-83
2021/12/15 18:59:44;;;;;;;0.20;0.20;;;;;;;;;;4860478;29;20052;-83
2021/12/15 19:02:12;;;;;;;0.20;0.20;;;;;;;;;;4865720;29;20076;-83
2021/12/15 19:04:39;;;;;;;0.13;0.13;;;;;;;;;;4861098;29;20045;-83
2021/12/15 19:07:06;;;;;;;0.20;0.20;;;;;;;;;;4871489;29;20040;-84
2021/12/15 19:09:32;;;;;;;;;;;;;;;;;;4872160;29;20397;-84
2021/12/15 19:11:59;;;;;;;0.10;0.10;;;;;;;;;;4872861;29;20421;-84
2021/12/15 19:14:26;;;;;;;0.30;0.30;;;;;;;;;;4871178;29;20032;-83
2021/12/15 19:16:54;;;;;;;0.10;0.10;;;;;;;;;;4866104;29;20516;-83
2021/12/15 19:19:22;;;;;;;0.10;0.10;;;;;;;;;;4859998;29;20041;-83
2021/12/15 19:21:48;;;;;;;0.10;0.10;;;;;;;;;;4870004;29;20116;-85
2021/12/15 19:24:14;;;;;;;0.20;0.20;;;;;;;;;;4872803;29;20032;-85
2021/12/15 19:26:42;;;;;;;0.10;0.10;;;;;;;;;;4862498;29;20472;-86
2021/12/15 19:29:09;;;;;;;0.20;0.20;;;;;;;;;;4856271;29;20467;-84
2021/12/15 19:31:35;;;;;;;;;;;;;;;;;;4861001;29;20037;-85
2021/12/15 19:34:01;;;;;;;0.10;0.10;;;;;;;;;;4855738;29;20505;-84
2021/12/15 19:36:28;;;;;;;0.10;0.10;;;;;;;;;;4857471;29;20029;-83
2021/12/15 19:38:55;;;;;;;0.20;0.20;;;;;;;;;;4870719;29;20740;-85
2021/12/15 19:41:22;;;;;;;0.10;0.10;;;;;;;;;;4871100;29;20093;-85
2021/12/15 19:43:48;;;;;;;0.10;0.10;;;;;;;;;;4871041;29;20519;-84
2021/12/15 19:46:15;;;;;;;0.20;0.20;;;;;;;;;;4870494;29;20805;-83
2021/12/15 19:48:42;;;;;;;0.10;0.10;;;;;;;;;;4869681;29;20036;-85
2021/12/15 19:51:09;;;;;;;0.20;0.20;;;;;;;;;;4871354;29;20136;-86
2021/12/15 19:53:35;;;;;;;0.60;0.60;;;;;;;;;;4869730;29;20035;-87
2021/12/15 19:56:02;;;;;;;0.10;0.10;;;;;;;;;;4868212;29;20466;-82
2021/12/15 19:58:29;;;;;;;0.10;0.10;;;;;;;;;;4867826;29;20033;-82
2021/12/15 20:00:57;;;;;;;0.20;0.20;;;;;;;;;;4868198;29;20037;-81
2021/12/15 20:03:23;;;;;;;0.20;0.20;;;;;;;;;;4868156;29;20029;-86
2021/12/15 20:05:51;;;;;;;0.10;0.10;;;;;;;;;;4867782;29;20660;-86
2021/12/15 20:08:17;;;;;;;0.10;0.10;;;;;;;;;;4867828;29;20029;-88
2021/12/15 20:10:44;;;;;;;0.20;0.20;;;;;;;;;;4868696;29;20048;-87
2021/12/15 20:13:12;;;;;;;0.20;0.20;;;;;;;;;;4869460;29;20592;-88
2021/12/15 20:15:40;;;;;;;0.10;0.10;;;;;;;;;;4868996;29;20033;-88
2021/12/15 20:18:06;;;;;;;0.55;0.35;;;;;;;;;;4869411;29;20036;-87
2021/12/15 20:20:34;;;;;;;0.20;0.20;;;;;;;;;;4864667;29;20029;-87
2021/12/15 20:23:00;;;;;;;0.20;0.20;;;;;;;;;;4868116;29;20060;-84
2021/12/15 20:25:27;;;;;;;0.10;0.10;;;;;;;;;;4866856;29;20033;-87
2021/12/15 20:27:54;;;;;;;0.20;0.20;;;;;;;;;;4862443;29;20407;-88
2021/12/15 20:30:20;;;;;;;0.10;0.10;;;;;;;;;;4851132;29;20448;-87
2021/12/15 20:32:48;;;;;;;0.10;0.10;;;;;;;;;;4867116;29;20056;-87
2021/12/15 20:35:15;;;;;;;0.15;0.15;;;;;;;;;;4866986;29;20072;-84
2021/12/15 20:37:41;;;;;;;;;;;;;;;;;;4866557;29;20032;-85
2021/12/15 20:40:09;;;;;;;0.28;0.28;;;;;;;;;;4867148;29;19931;-85
2021/12/15 20:42:35;;;;;;;0.10;0.10;;;;;;;;;;4869167;29;20062;-87
2021/12/15 20:45:01;;;;;;;0.17;0.17;;;;;;;;;;4866914;29;20033;-88
2021/12/15 20:47:27;;;;;;;0.10;0.10;;;;;;;;;;4866851;29;20132;-88
2021/12/15 20:49:53;;;;;;;0.10;0.10;;;;;;;;;;4865701;29;20072;-88
2021/12/15 20:52:22;;;;;;;0.10;0.10;;;;;;;;;;4869411;29;20037;-88
2021/12/15 20:54:48;;;;;;;0.20;0.20;;;;;;;;;;4868631;29;20081;-88
2021/12/15 20:57:14;;;;;;;0.10;0.10;;;;;;;;;;4869872;29;20033;-89
2021/12/15 20:59:41;;;;;;;0.10;0.10;;;;;;;;;;4868064;29;20040;-88
2021/12/15 21:02:09;;;;;;;0.20;0.20;;;;;;;;;;4851237;29;20036;-87
2021/12/15 21:04:37;;;;;;;0.10;0.10;;;;;;;;;;4849873;29;20037;-88
2021/12/15 21:07:03;;;;;;;0.10;0.10;;;;;;;;;;4852585;29;20033;-88
2021/12/15 21:09:34;;;;;;;0.10;0.10;;;;;;;;;;4853382;29;20045;-88
2021/12/15 21:12:00;;;;;;;0.20;0.20;;;;;;;;;;4855381;29;20194;-88
2021/12/15 21:14:28;;;;;;;0.20;0.20;;;;;;;;;;4867945;29;20116;-87
2021/12/15 21:16:55;;;;;;;0.20;0.20;;;;;;;;;;4869538;29;20032;-88
2021/12/15 21:19:22;;;;;;;0.10;0.10;;;;;;;;;;4868225;29;20144;-88
2021/12/15 21:21:50;;;;;;;0.30;0.30;;;;;;;;;;4867603;29;20455;-87
2021/12/15 21:24:16;;;;;;;0.10;0.10;;;;;;;;;;4853070;29;20040;-88
2021/12/15 21:26:45;;;;;;;0.10;0.10;;;;;;;;;;4867818;29;20025;-88
2021/12/15 21:29:15;;;;;;;0.10;0.10;;;;;;;;;;4867025;29;20064;-88
2021/12/15 21:31:42;;;;;;;0.10;0.10;;;;;;;;;;4866088;29;20037;-87
2021/12/15 21:34:08;;;;;;;0.20;0.20;;;;;;;;;;4868570;29;20036;-88
2021/12/15 21:36:34;;;;;;;0.20;0.20;;;;;;;;;;4869272;29;20029;-88
2021/12/15 21:39:00;;;;;;;0.10;0.10;;;;;;;;;;4870893;29;20040;-86
2021/12/15 21:41:27;;;;;;;0.20;0.20;;;;;;;;;;4850944;29;20037;-88
2021/12/15 21:43:53;;;;;;;0.75;0.35;;;;;;;;;;4870597;29;20036;-87
2021/12/15 21:46:20;;;;;;;0.10;0.10;;;;;;;;;;4869090;29;20033;-88
2021/12/15 21:48:46;;;;;;;0.13;0.13;;;;;;;;;;4869942;29;20049;-86
2021/12/15 21:51:13;;;;;;;0.10;0.10;;;;;;;;;;4871317;29;20786;-87
2021/12/15 21:53:40;;;;;;;0.20;0.20;;;;;;;;;;4868812;29;20037;-88
2021/12/15 21:56:07;;;;;;;0.20;0.20;;;;;;;;;;4867018;29;20037;-87
2021/12/15 21:58:33;;;;;;;;;;;;;;;;;;4866018;29;20043;-80
2021/12/15 22:01:00;;;;;;;0.20;0.20;;;;;;;;;;4868515;29;19911;-87
2021/12/15 22:03:28;;;;;;;0.17;0.17;;;;;;;;;;4857795;29;20582;-87
2021/12/15 22:05:55;;;;;;;0.20;0.20;;;;;;;;;;4868133;29;20029;-86
2021/12/15 22:08:22;;;;;;;0.20;0.20;;;;;;;;;;4868116;29;20037;-88
2021/12/15 22:10:48;;;;;;;0.20;0.20;;;;;;;;;;4869352;29;20067;-88
2021/12/15 22:13:15;;;;;;;0.20;0.20;;;;;;;;;;4869614;29;20432;-88
2021/12/15 22:15:49;;;;;;;0.20;0.20;;;;;;;;;;4864446;29;20422;-87
2021/12/15 22:18:17;;;;;;;0.17;0.17;;;;;;;;;;4869833;29;20109;-83
2021/12/15 22:20:43;;;;;;;0.17;0.17;;;;;;;;;;4866483;29;20033;-84
2021/12/15 22:23:10;;;;;;;0.10;0.10;;;;;;;;;;4869676;29;20028;-84
2021/12/15 22:25:36;;;;;;;0.30;0.30;;;;;;;;;;4869956;29;20044;-84
2021/12/15 22:28:02;;;;;;;0.20;0.20;;;;;;;;;;4871130;29;20032;-82
2021/12/15 22:30:30;;;;;;;0.20;0.20;;;;;;;;;;4869997;29;20041;-83
2021/12/15 22:33:01;;;;;;;0.10;0.10;;;;;;;;;;4870493;29;20076;-83
2021/12/15 22:35:28;;;;;;;0.20;0.20;;;;;;;;;;4863346;29;20033;-84
2021/12/15 22:37:55;;;;;;;0.20;0.20;;;;;;;;;;4870710;29;20553;-83
2021/12/15 22:40:21;;;;;;;0.20;0.20;;;;;;;;;;4870800;29;20116;-83
2021/12/15 22:42:47;;;;;;;0.10;0.10;;;;;;;;;;4868585;29;20045;-84
2021/12/15 22:45:16;;;;;;;0.10;0.10;;;;;;;;;;4873197;29;20036;-83
2021/12/15 22:47:43;;;;;;;0.20;0.20;;;;;;;;;;4869923;29;20045;-83
2021/12/15 22:50:10;;;;;;;0.10;0.10;;;;;;;;;;4871473;29;20101;-83
2021/12/15 22:52:36;;;;;;;0.10;0.10;;;;;;;;;;4869575;29;20033;-85
2021/12/15 22:55:04;;;;;;;0.20;0.20;;;;;;;;;;4867855;29;20057;-84
2021/12/15 22:57:30;;;;;;;0.10;0.10;;;;;;;;;;4854129;29;20123;-82
2021/12/15 22:59:56;;;;;;;0.10;0.10;;;;;;;;;;4871815;29;20029;-82
2021/12/15 23:02:24;;;;;;;0.20;0.20;;;;;;;;;;4848646;29;20093;-82
2021/12/15 23:04:52;;;;;;;0.13;0.13;;;;;;;;;;4864570;29;20457;-83
2021/12/15 23:07:19;;;;;;;0.10;0.10;;;;;;;;;;4869579;29;20097;-84
2021/12/15 23:09:45;;;;;;;;;;;;;;;;;;4873146;29;20040;-83
2021/12/15 23:12:13;;;;;;;0.10;0.10;;;;;;;;;;4868000;29;19916;-86
2021/12/15 23:14:58;;;;;;;0.20;0.20;;;;;;;;;;4868301;29;20029;-89
2021/12/15 23:17:27;;;;;;;0.20;0.20;;;;;;;;;;4866073;29;20060;-88
2021/12/15 23:19:54;;;;;;;0.10;0.10;;;;;;;;;;4866513;29;20029;-88
2021/12/15 23:22:21;;;;;;;0.13;0.13;;;;;;;;;;4866693;29;20057;-88
2021/12/15 23:24:48;;;;;;;0.20;0.20;;;;;;;;;;4869009;29;20548;-87
2021/12/15 23:27:14;;;;;;;;;;;;;;;;;;4867420;29;20044;-88
2021/12/15 23:29:40;;;;;;;0.10;0.10;;;;;;;;;;4866671;29;19931;-88
2021/12/15 23:32:09;;;;;;;0.10;0.10;;;;;;;;;;4868739;29;21351;-87
2021/12/15 23:34:37;;;;;;;0.10;0.10;;;;;;;;;;4868949;29;20028;-88
2021/12/15 23:37:04;;;;;;;0.20;0.20;;;;;;;;;;4869318;29;20511;-86
